createdAt,value
2022-09-09T00:00:34.465Z,102500.19
2022-09-09T00:03:08.150Z,102493.06
2022-09-09T00:05:40.465Z,102487.78
2022-09-09T00:08:16.086Z,102492.25
2022-09-09T00:10:44.014Z,102494.00
2022-09-09T00:13:18.195Z,102488.63
2022-09-09T00:15:50.200Z,102493.66
2022-09-09T00:18:24.987Z,102491.81
2022-09-09T00:20:58.238Z,102487.41
2022-09-09T00:23:27.251Z,102496.00
2022-09-09T00:25:59.662Z,102497.63
2022-09-09T00:28:31.293Z,102493.13
2022-09-09T00:31:02.690Z,102493.06
2022-09-09T00:33:32.374Z,102496.47
2022-09-09T00:36:00.615Z,102486.78
2022-09-09T00:38:31.123Z,102497.19
2022-09-09T00:41:03.786Z,102486.63
2022-09-09T00:43:33.919Z,102486.56
2022-09-09T00:46:25.531Z,102485.59
2022-09-09T00:48:56.840Z,102491.47
2022-09-09T00:51:28.595Z,102488.75
2022-09-09T00:54:13.823Z,102475.63
2022-09-09T00:56:45.631Z,102476.47
2022-09-09T00:59:24.510Z,102485.00
2022-09-09T01:01:56.063Z,102483.09
2022-09-09T01:04:27.114Z,102478.63
2022-09-09T01:06:58.374Z,102471.59
2022-09-09T01:09:29.893Z,102469.75
2022-09-09T01:12:01.739Z,102467.94
2022-09-09T01:14:40.941Z,102463.53
2022-09-09T01:17:13.165Z,102462.59
2022-09-09T01:19:47.570Z,102467.72
2022-09-09T01:22:21.537Z,102465.97
2022-09-09T01:24:56.010Z,102462.41
2022-09-09T01:27:26.106Z,102464.00
2022-09-09T01:29:53.725Z,102456.03
2022-09-09T01:32:41.314Z,102459.44
2022-09-09T01:35:10.104Z,102458.53
2022-09-09T01:37:37.712Z,102453.28
2022-09-09T01:40:05.631Z,102450.69
2022-09-09T01:42:34.925Z,102452.38
2022-09-09T01:45:02.710Z,102453.28
2022-09-09T01:47:30.379Z,102451.59
2022-09-09T01:49:58.072Z,102453.34
2022-09-09T01:52:25.719Z,102451.66
2022-09-09T01:54:53.378Z,102441.28
2022-09-09T01:57:25.034Z,102435.31
2022-09-09T02:00:01.052Z,102435.41
2022-09-09T02:02:32.473Z,102427.69
2022-09-09T02:05:07.010Z,102430.44
2022-09-09T02:07:40.222Z,102429.09
2022-09-09T02:10:11.381Z,102421.50
2022-09-09T02:12:41.321Z,102412.88
2022-09-09T02:15:17.045Z,102416.56
2022-09-09T02:17:44.652Z,102413.09
2022-09-09T02:20:15.349Z,102411.22
2022-09-09T02:22:45.173Z,102418.09
2022-09-09T02:25:15.300Z,102422.41
2022-09-09T02:27:43.748Z,102411.84
2022-09-09T02:30:13.817Z,102432.63
2022-09-09T02:32:42.713Z,102428.25
2022-09-09T02:35:11.633Z,102423.69
2022-09-09T02:37:39.861Z,102415.69
2022-09-09T02:40:08.414Z,102421.66
2022-09-09T02:42:40.705Z,102410.16
2022-09-09T02:45:09.179Z,102413.50
2022-09-09T02:47:40.802Z,102403.00
2022-09-09T02:50:13.711Z,102399.44
2022-09-09T02:52:47.023Z,102403.69
2022-09-09T02:55:18.717Z,102400.97
2022-09-09T02:57:48.550Z,102406.97
2022-09-09T03:00:16.644Z,102402.53
2022-09-09T03:02:46.446Z,102398.97
2022-09-09T03:05:14.418Z,102391.94
2022-09-09T03:07:42.780Z,102394.56
2022-09-09T03:10:11.702Z,102397.91
2022-09-09T03:12:39.735Z,102396.91
2022-09-09T03:15:08.062Z,102397.66
2022-09-09T03:17:36.434Z,102395.78
2022-09-09T03:20:05.663Z,102392.16
2022-09-09T03:22:33.411Z,102393.03
2022-09-09T03:25:01.090Z,102386.81
2022-09-09T03:27:28.686Z,102390.22
2022-09-09T03:29:56.954Z,102391.84
2022-09-09T03:32:26.705Z,102397.81
2022-09-09T03:34:54.710Z,102395.19
2022-09-09T03:37:23.669Z,102395.97
2022-09-09T03:39:51.413Z,102394.16
2022-09-09T03:42:20.118Z,102386.22
2022-09-09T03:44:50.879Z,102387.09
2022-09-09T03:47:20.204Z,102386.16
2022-09-09T03:49:47.838Z,102383.50
2022-09-09T03:52:15.558Z,102392.13
2022-09-09T03:54:44.519Z,102385.91
2022-09-09T03:57:12.191Z,102382.31
2022-09-09T03:59:39.798Z,102384.84
2022-09-09T04:02:07.423Z,102383.09
2022-09-09T04:04:35.067Z,102387.41
2022-09-09T04:07:02.826Z,102383.09
2022-09-09T04:09:30.410Z,102385.59
2022-09-09T04:11:59.495Z,102384.59
2022-09-09T04:14:29.798Z,102388.97
2022-09-09T04:16:59.251Z,102386.34
2022-09-09T04:19:27.044Z,102381.13
2022-09-09T04:21:54.670Z,102374.06
2022-09-09T04:24:22.604Z,102373.94
2022-09-09T04:26:50.207Z,102367.75
2022-09-09T04:29:19.178Z,102369.47
2022-09-09T04:31:46.852Z,102367.69
2022-09-09T04:34:14.478Z,102365.88
2022-09-09T04:36:42.110Z,102370.97
2022-09-09T04:39:09.782Z,102363.91
2022-09-09T04:41:37.530Z,102368.25
2022-09-09T04:44:05.207Z,102369.88
2022-09-09T04:46:35.361Z,102364.56
2022-09-09T04:49:03.011Z,102371.41
2022-09-09T04:51:32.235Z,102367.00
2022-09-09T04:54:00.169Z,102371.19
2022-09-09T04:56:29.221Z,102373.81
2022-09-09T04:58:56.834Z,102378.06
2022-09-09T05:01:25.818Z,102371.06
2022-09-09T05:03:54.912Z,102364.88
2022-09-09T05:06:23.899Z,102365.63
2022-09-09T05:08:51.650Z,102367.25
2022-09-09T05:11:19.939Z,102366.31
2022-09-09T05:13:47.710Z,102366.16
2022-09-09T05:16:15.873Z,102363.47
2022-09-09T05:18:44.743Z,102357.25
2022-09-09T05:21:14.099Z,102358.97
2022-09-09T05:23:43.845Z,102358.81
2022-09-09T05:26:17.199Z,102359.59
2022-09-09T05:28:45.901Z,102359.44
2022-09-09T05:31:14.186Z,102354.94
2022-09-09T05:33:44.055Z,102353.09
2022-09-09T05:36:15.038Z,102369.56
2022-09-09T05:38:42.907Z,102359.03
2022-09-09T05:41:11.304Z,102364.03
2022-09-09T05:43:39.231Z,102357.84
2022-09-09T05:46:09.024Z,102351.47
2022-09-09T05:48:38.400Z,102353.00
2022-09-09T05:51:07.831Z,102353.72
2022-09-09T05:53:37.306Z,102357.88
2022-09-09T05:56:05.902Z,102349.88
2022-09-09T05:58:33.795Z,102353.97
2022-09-09T06:01:05.512Z,102358.22
2022-09-09T06:03:33.123Z,102360.72
2022-09-09T06:06:01.184Z,102357.00
2022-09-09T06:08:29.265Z,102357.78
2022-09-09T06:11:05.114Z,102357.66
2022-09-09T06:13:33.043Z,102353.00
2022-09-09T06:16:00.991Z,102347.63
2022-09-09T06:18:29.045Z,102352.63
2022-09-09T06:20:57.748Z,102344.63
2022-09-09T06:23:25.734Z,102341.84
2022-09-09T06:25:53.371Z,102346.09
2022-09-09T06:28:22.643Z,102345.94
2022-09-09T06:30:50.230Z,102350.19
2022-09-09T06:33:17.824Z,102351.72
2022-09-09T06:35:54.112Z,102348.09
2022-09-09T06:38:23.254Z,102356.75
2022-09-09T06:40:53.904Z,102359.22
2022-09-09T06:43:23.018Z,102359.94
2022-09-09T06:45:56.969Z,102356.38
2022-09-09T06:48:29.116Z,102359.78
2022-09-09T06:51:03.735Z,102363.22
2022-09-09T06:53:31.371Z,102359.63
2022-09-09T06:55:58.956Z,102362.25
2022-09-09T06:58:27.947Z,102356.94
2022-09-09T07:01:03.146Z,102351.69
2022-09-09T07:03:30.893Z,102362.03
2022-09-09T07:05:58.893Z,102359.25
2022-09-09T07:08:27.599Z,102356.69
2022-09-09T07:10:55.737Z,102361.44
2022-09-09T07:13:26.390Z,102358.31
2022-09-09T07:15:55.508Z,102352.50
2022-09-09T07:18:26.047Z,102359.00
2022-09-09T07:20:57.959Z,102358.59
2022-09-09T07:23:26.001Z,102364.28
2022-09-09T07:25:56.641Z,102357.75
2022-09-09T07:28:25.031Z,102347.53
2022-09-09T07:31:00.615Z,102354.34
2022-09-09T07:33:28.242Z,102358.28
2022-09-09T07:35:56.145Z,102352.91
2022-09-09T07:38:23.821Z,102348.94
2022-09-09T07:40:51.415Z,102347.59
2022-09-09T07:43:19.872Z,102346.72
2022-09-09T07:45:48.055Z,102355.00
2022-09-09T07:48:17.053Z,102350.91
2022-09-09T07:50:44.646Z,102347.25
2022-09-09T07:53:12.258Z,102344.19
2022-09-09T07:55:40.087Z,102349.56
2022-09-09T07:58:07.693Z,102353.78
2022-09-09T08:00:35.315Z,102349.03
2022-09-09T08:03:03.306Z,102344.78
2022-09-09T08:05:32.315Z,102347.81
2022-09-09T08:08:04.750Z,102340.28
2022-09-09T08:10:32.333Z,102350.94
2022-09-09T08:13:17.429Z,102341.06
2022-09-09T08:15:46.222Z,102343.81
2022-09-09T08:18:15.007Z,102345.19
2022-09-09T08:20:43.970Z,102343.97
2022-09-09T08:23:11.551Z,102348.22
2022-09-09T08:25:39.155Z,102346.97
2022-09-09T08:28:06.935Z,102340.63
2022-09-09T08:30:34.582Z,102345.97
2022-09-09T08:33:02.237Z,102342.94
2022-09-09T08:35:33.688Z,102352.38
2022-09-09T08:38:04.616Z,102349.28
2022-09-09T08:40:40.465Z,102350.13
2022-09-09T08:43:08.355Z,102356.38
2022-09-09T08:45:43.294Z,102352.00
2022-09-09T08:48:20.526Z,102348.16
2022-09-09T08:50:51.453Z,102351.22
2022-09-09T08:53:22.842Z,102348.31
2022-09-09T08:55:52.306Z,102350.22
2022-09-09T08:58:20.697Z,102345.63
2022-09-09T09:01:03.162Z,102340.25
2022-09-09T09:03:36.455Z,102344.47
2022-09-09T09:06:08.535Z,102330.94
2022-09-09T09:08:45.406Z,102331.53
2022-09-09T09:11:16.122Z,102333.69
2022-09-09T09:13:46.769Z,102341.84
2022-09-09T09:16:19.419Z,102335.06
2022-09-09T09:18:47.165Z,102337.03
2022-09-09T09:21:19.777Z,102334.56
2022-09-09T09:23:53.162Z,102341.28
2022-09-09T09:26:20.958Z,102340.44
2022-09-09T09:28:48.650Z,102333.28
2022-09-09T09:31:16.292Z,102327.91
2022-09-09T09:33:48.395Z,102332.09
2022-09-09T09:36:16.863Z,102331.44
2022-09-09T09:41:45.045Z,102327.66
2022-09-09T09:44:24.335Z,102338.44
2022-09-09T09:46:52.155Z,102335.69
2022-09-09T09:49:22.719Z,102332.31
2022-09-09T09:51:50.390Z,102323.34
2022-09-09T09:54:25.134Z,102325.44
2022-09-09T09:56:52.849Z,102320.50
2022-09-09T09:59:38.719Z,102318.50
2022-09-09T10:02:21.099Z,102308.78
2022-09-09T10:05:02.557Z,102313.94
2022-09-09T10:07:30.327Z,102314.03
2022-09-09T10:10:00.092Z,102305.69
2022-09-09T10:12:41.386Z,102307.28
2022-09-09T10:15:17.251Z,102310.97
2022-09-09T10:17:52.264Z,102316.56
2022-09-09T10:20:30.176Z,102313.53
2022-09-09T10:23:06.330Z,102315.00
2022-09-09T10:25:42.544Z,102314.66
2022-09-09T10:28:19.137Z,102320.59
2022-09-09T10:30:52.767Z,102312.97
2022-09-09T10:33:28.825Z,102324.41
2022-09-09T10:36:01.135Z,102319.09
2022-09-09T10:38:32.082Z,102331.38
2022-09-09T10:41:10.471Z,102321.63
2022-09-09T10:43:45.040Z,102322.28
2022-09-09T10:46:17.186Z,102317.41
2022-09-09T10:48:57.738Z,102310.00
2022-09-09T10:51:30.733Z,102309.94
2022-09-09T10:54:09.506Z,102304.84
2022-09-09T10:56:40.770Z,102308.94
2022-09-09T10:59:13.283Z,102308.03
2022-09-09T11:01:45.837Z,102295.94
2022-09-09T11:04:17.995Z,102298.63
2022-09-09T11:06:49.411Z,102309.31
2022-09-09T11:09:19.165Z,102301.72
2022-09-09T11:11:51.424Z,102315.69
2022-09-09T11:14:22.605Z,102305.13
2022-09-09T11:16:52.723Z,102304.09
2022-09-09T11:19:24.529Z,102301.25
2022-09-09T11:21:53.014Z,102287.69
2022-09-09T11:24:23.651Z,102288.53
2022-09-09T11:26:55.607Z,102292.56
2022-09-09T11:29:36.320Z,102295.84
2022-09-09T11:32:11.226Z,102297.13
2022-09-09T11:34:41.699Z,102293.63
2022-09-09T11:37:17.144Z,102289.53
2022-09-09T11:39:58.223Z,102298.00
2022-09-09T11:42:27.239Z,102289.31
2022-09-09T11:44:55.937Z,102286.88
2022-09-09T11:47:30.335Z,102291.13
2022-09-09T11:50:09.267Z,102283.19
2022-09-09T11:52:41.443Z,102280.03
2022-09-09T11:55:13.394Z,102284.06
2022-09-09T11:57:44.541Z,102280.09
2022-09-09T12:00:33.783Z,102275.25
2022-09-09T12:03:01.519Z,102271.94
2022-09-09T12:05:38.527Z,102278.19
2022-09-09T12:08:06.610Z,102272.06
2022-09-09T12:10:35.103Z,102277.88
2022-09-09T12:13:17.262Z,102262.88
2022-09-09T12:15:49.053Z,102259.69
2022-09-09T12:18:24.729Z,102259.69
2022-09-09T12:20:59.187Z,102275.44
2022-09-09T12:23:33.054Z,102262.88
2022-09-09T12:26:06.043Z,102261.44
2022-09-09T12:28:43.760Z,102261.22
2022-09-09T12:31:18.865Z,102274.56
2022-09-09T12:33:48.621Z,102273.00
2022-09-09T12:36:17.771Z,102271.69
2022-09-09T12:38:45.527Z,102269.78
2022-09-09T12:41:31.183Z,102265.16
2022-09-09T12:44:08.955Z,102268.78
2022-09-09T12:46:38.543Z,102259.16
2022-09-09T12:49:07.489Z,102256.63
2022-09-09T12:51:35.567Z,102253.78
2022-09-09T12:54:04.340Z,102259.75
2022-09-09T12:56:33.178Z,102253.22
2022-09-09T12:59:01.884Z,102255.66
2022-09-09T13:01:32.235Z,102255.53
2022-09-09T13:03:59.981Z,102258.22
2022-09-09T13:06:29.741Z,102249.44
2022-09-09T13:08:58.209Z,102263.06
2022-09-09T13:11:31.459Z,102255.59
2022-09-09T13:13:59.967Z,102255.13
2022-09-09T13:16:31.559Z,102237.59
2022-09-09T13:19:01.923Z,102251.16
2022-09-09T13:21:36.252Z,102246.69
2022-09-09T13:24:05.339Z,102241.72
2022-09-09T13:26:33.004Z,102244.25
2022-09-09T13:29:10.565Z,102238.38
2022-09-09T13:31:38.840Z,102243.69
2022-09-09T13:34:15.163Z,102238.13
2022-09-09T13:36:43.458Z,102241.75
2022-09-09T13:39:17.143Z,102236.03
2022-09-09T13:41:45.967Z,102235.06
2022-09-09T13:44:19.844Z,102236.84
2022-09-09T13:46:47.451Z,102244.28
2022-09-09T13:49:24.128Z,102245.25
2022-09-09T13:51:54.609Z,102230.78
2022-09-09T13:54:23.843Z,102237.88
2022-09-09T13:56:52.203Z,102236.38
2022-09-09T13:59:22.390Z,102234.25
2022-09-09T14:01:50.254Z,102231.59
2022-09-09T14:04:17.883Z,102223.16
2022-09-09T14:06:46.888Z,102221.78
2022-09-09T14:09:16.611Z,102224.97
2022-09-09T14:11:44.887Z,102223.25
2022-09-09T14:14:12.486Z,102227.28
2022-09-09T14:16:40.172Z,102216.63
2022-09-09T14:19:07.774Z,102212.53
2022-09-09T14:21:35.368Z,102212.84
2022-09-09T14:24:04.577Z,102210.81
2022-09-09T14:26:32.201Z,102206.44
2022-09-09T14:29:02.612Z,102212.03
2022-09-09T14:31:30.680Z,102210.84
2022-09-09T14:33:58.290Z,102216.00
2022-09-09T14:36:26.788Z,102216.16
2022-09-09T14:38:54.413Z,102218.94
2022-09-09T14:41:24.544Z,102220.66
2022-09-09T14:43:52.669Z,102211.97
2022-09-09T14:46:21.219Z,102213.69
2022-09-09T14:48:49.795Z,102206.09
2022-09-09T14:51:18.610Z,102201.84
2022-09-09T14:53:46.354Z,102203.94
2022-09-09T14:56:15.167Z,102199.75
2022-09-09T14:58:44.889Z,102213.56
2022-09-09T15:01:13.447Z,102199.41
2022-09-09T15:03:41.658Z,102202.44
2022-09-09T15:06:10.323Z,102197.06
2022-09-09T15:08:42.275Z,102206.59
2022-09-09T15:11:13.963Z,102206.16
2022-09-09T15:13:42.236Z,102199.53
2022-09-09T15:16:15.846Z,102204.81
2022-09-09T15:18:45.936Z,102193.59
2022-09-09T15:21:13.880Z,102197.53
2022-09-09T15:23:41.927Z,102202.81
2022-09-09T15:26:09.761Z,102208.94
2022-09-09T15:28:38.913Z,102210.66
2022-09-09T15:31:08.295Z,102203.22
2022-09-09T15:33:38.716Z,102207.22
2022-09-09T15:36:17.172Z,102196.47
2022-09-09T15:38:44.969Z,102200.59
2022-09-09T15:41:13.833Z,102202.28
2022-09-09T15:43:44.883Z,102205.34
2022-09-09T15:46:27.102Z,102207.56
2022-09-09T15:48:56.914Z,102208.16
2022-09-09T15:51:41.829Z,102199.75
2022-09-09T15:54:11.501Z,102210.72
2022-09-09T15:56:39.113Z,102207.56
2022-09-09T15:59:06.699Z,102200.16
2022-09-09T16:01:34.559Z,102213.91
2022-09-09T16:04:04.880Z,102211.13
2022-09-09T16:06:32.780Z,102214.81
2022-09-09T16:09:01.979Z,102210.69
2022-09-09T16:11:30.587Z,102207.53
2022-09-09T16:13:58.371Z,102213.97
2022-09-09T16:16:26.791Z,102219.97
2022-09-09T16:18:55.323Z,102222.25
2022-09-09T16:21:25.909Z,102222.25
2022-09-09T16:23:54.350Z,102219.38
2022-09-09T16:26:24.954Z,102211.75
2022-09-09T16:28:55.173Z,102218.19
2022-09-09T16:31:24.046Z,102214.78
2022-09-09T16:33:54.883Z,102215.09
2022-09-09T16:36:28.255Z,102218.91
2022-09-09T16:38:58.397Z,102214.88
2022-09-09T16:41:26.422Z,102216.13
2022-09-09T16:43:57.718Z,102210.19
2022-09-09T16:46:26.399Z,102207.75
2022-09-09T16:48:55.771Z,102209.63
2022-09-09T16:51:25.007Z,102208.25
2022-09-09T16:53:54.418Z,102210.31
2022-09-09T16:56:23.283Z,102212.41
2022-09-09T16:58:51.933Z,102213.50
2022-09-09T17:01:19.646Z,102215.72
2022-09-09T17:03:47.300Z,102213.56
2022-09-09T17:06:15.824Z,102215.09
2022-09-09T17:08:43.935Z,102221.94
2022-09-09T17:11:16.531Z,102218.97
2022-09-09T17:13:44.543Z,102209.53
2022-09-09T17:16:12.665Z,102212.75
2022-09-09T17:18:41.059Z,102225.34
2022-09-09T17:21:15.271Z,102216.16
2022-09-09T17:23:43.466Z,102227.16
2022-09-09T17:26:12.954Z,102219.72
2022-09-09T17:28:43.164Z,102229.75
2022-09-09T17:31:12.963Z,102222.50
2022-09-09T17:33:41.835Z,102233.38
2022-09-09T17:36:12.568Z,102232.22
2022-09-09T17:38:41.057Z,102233.59
2022-09-09T17:41:10.303Z,102234.19
2022-09-09T17:43:38.979Z,102236.25
2022-09-09T17:46:12.466Z,102231.59
2022-09-09T17:48:40.766Z,102235.50
2022-09-09T17:51:10.193Z,102236.72
2022-09-09T17:53:40.295Z,102224.94
2022-09-09T17:56:09.503Z,102228.41
2022-09-09T17:58:37.397Z,102230.28
2022-09-09T18:01:06.497Z,102237.59
2022-09-09T18:03:38.140Z,102237.91
2022-09-09T18:06:07.355Z,102243.50
2022-09-09T18:08:36.900Z,102247.28
2022-09-09T18:11:05.783Z,102240.75
2022-09-09T18:13:34.058Z,102248.88
2022-09-09T18:16:01.898Z,102254.44
2022-09-09T18:18:30.251Z,102253.00
2022-09-09T18:21:01.890Z,102248.97
2022-09-09T18:23:30.058Z,102242.31
2022-09-09T18:25:59.171Z,102250.28
2022-09-09T18:28:28.474Z,102242.66
2022-09-09T18:30:57.090Z,102246.69
2022-09-09T18:33:25.237Z,102239.13
2022-09-09T18:35:53.594Z,102236.66
2022-09-09T18:38:23.166Z,102245.78
2022-09-09T18:40:51.183Z,102248.72
2022-09-09T18:43:19.680Z,102252.50
2022-09-09T18:45:47.895Z,102255.28
2022-09-09T18:48:16.000Z,102250.34
2022-09-09T18:50:44.074Z,102248.69
2022-09-09T18:53:12.219Z,102251.38
2022-09-09T18:55:41.715Z,102250.72
2022-09-09T18:58:09.663Z,102250.38
2022-09-09T19:00:37.546Z,102249.22
2022-09-09T19:03:05.496Z,102252.22
2022-09-09T19:05:33.527Z,102254.19
2022-09-09T19:08:01.741Z,102247.63
2022-09-09T19:10:30.703Z,102248.84
2022-09-09T19:13:01.209Z,102255.91
2022-09-09T19:15:29.719Z,102247.63
2022-09-09T19:17:57.556Z,102251.13
2022-09-09T19:20:25.969Z,102244.47
2022-09-09T19:22:53.565Z,102243.06
2022-09-09T19:25:22.271Z,102242.56
2022-09-09T19:27:49.890Z,102242.69
2022-09-09T19:30:19.226Z,102241.97
2022-09-09T19:32:53.686Z,102242.09
2022-09-09T19:35:21.869Z,102243.75
2022-09-09T19:37:49.474Z,102238.31
2022-09-09T19:40:17.524Z,102236.41
2022-09-09T19:42:45.128Z,102245.19
2022-09-09T19:45:16.025Z,102247.97
2022-09-09T19:47:45.737Z,102247.53
2022-09-09T19:50:16.971Z,102239.06
2022-09-09T19:52:50.808Z,102244.31
2022-09-09T19:55:28.573Z,102246.34
2022-09-09T19:57:57.183Z,102244.06
2022-09-09T20:00:26.120Z,102244.53
2022-09-09T20:03:18.630Z,102247.44
2022-09-09T20:05:54.740Z,102244.25
2022-09-09T20:08:27.958Z,102252.44
2022-09-09T20:11:03.670Z,102243.94
2022-09-09T20:13:32.473Z,102250.41
2022-09-09T20:16:01.790Z,102246.16
2022-09-09T20:18:47.728Z,102251.53
2022-09-09T20:21:21.927Z,102251.97
2022-09-09T20:23:56.711Z,102250.38
2022-09-09T20:26:29.114Z,102248.75
2022-09-09T20:28:57.638Z,102250.59
2022-09-09T20:31:33.957Z,102248.09
2022-09-09T20:34:09.195Z,102250.00
2022-09-09T20:36:45.206Z,102242.25
2022-09-09T20:39:17.999Z,102244.13
2022-09-09T20:41:46.584Z,102246.97
2022-09-09T20:44:17.465Z,102245.59
2022-09-09T20:46:52.288Z,102244.03
2022-09-09T20:49:22.724Z,102250.28
2022-09-09T20:51:51.435Z,102244.41
2022-09-09T20:54:19.777Z,102249.75
2022-09-09T20:56:48.122Z,102246.41
2022-09-09T20:59:18.663Z,102248.22
2022-09-09T21:01:54.839Z,102250.31
2022-09-09T21:04:30.984Z,102252.09
2022-09-09T21:07:04.373Z,102253.97
2022-09-09T21:09:32.745Z,102253.34
2022-09-09T21:12:00.845Z,102249.91
2022-09-09T21:14:28.725Z,102246.53
2022-09-09T21:16:56.317Z,102246.59
2022-09-09T21:19:25.346Z,102250.97
2022-09-09T21:21:52.928Z,102244.88
2022-09-09T21:24:20.533Z,102245.91
2022-09-09T21:26:49.597Z,102243.50
2022-09-09T21:29:17.191Z,102243.59
2022-09-09T21:31:44.849Z,102249.69
2022-09-09T21:34:13.249Z,102250.50
2022-09-09T21:36:42.301Z,102246.16
2022-09-09T21:39:09.909Z,102242.78
2022-09-09T21:41:37.587Z,102250.59
2022-09-09T21:44:05.279Z,102246.09
2022-09-09T21:46:32.983Z,102246.09
2022-09-09T21:49:03.534Z,102254.91
2022-09-09T21:51:31.257Z,102249.75
2022-09-09T21:54:00.234Z,102254.34
2022-09-09T21:56:27.843Z,102246.69
2022-09-09T21:58:56.851Z,102251.00
2022-09-09T22:01:26.358Z,102245.00
2022-09-09T22:03:54.087Z,102245.84
2022-09-09T22:06:21.755Z,102241.53
2022-09-09T22:08:49.401Z,102237.25
2022-09-09T22:11:19.695Z,102239.91
2022-09-09T22:13:47.307Z,102235.63
2022-09-09T22:16:16.828Z,102235.63
2022-09-09T22:18:44.976Z,102239.34
2022-09-09T22:21:13.807Z,102239.63
2022-09-09T22:23:41.458Z,102241.63
2022-09-09T22:26:09.470Z,102234.69
2022-09-09T22:28:39.560Z,102240.25
2022-09-09T22:31:07.355Z,102245.72
2022-09-09T22:33:35.985Z,102243.19
2022-09-09T22:36:03.963Z,102242.34
2022-09-09T22:38:36.440Z,102244.91
2022-09-09T22:41:04.637Z,102239.56
2022-09-09T22:43:33.534Z,102248.28
2022-09-09T22:46:02.945Z,102245.72
2022-09-09T22:48:32.938Z,102239.91
2022-09-09T22:51:03.441Z,102237.19
2022-09-09T22:53:32.747Z,102237.25
2022-09-09T22:56:01.938Z,102239.22
2022-09-09T22:58:30.221Z,102230.69
2022-09-09T23:00:58.828Z,102231.84
2022-09-09T23:03:28.043Z,102231.88
2022-09-09T23:05:57.622Z,102230.19
2022-09-09T23:08:26.086Z,102232.09
2022-09-09T23:10:55.525Z,102229.66
2022-09-09T23:13:24.032Z,102222.81
2022-09-09T23:15:51.870Z,102220.16
2022-09-09T23:18:19.587Z,102220.97
2022-09-09T23:21:00.544Z,102215.75
2022-09-09T23:23:28.374Z,102215.16
2022-09-09T23:25:55.968Z,102210.97
2022-09-09T23:28:23.665Z,102210.09
2022-09-09T23:30:51.632Z,102210.16
2022-09-09T23:33:19.255Z,102208.34
2022-09-09T23:35:48.243Z,102204.91
2022-09-09T23:38:15.878Z,102203.31
2022-09-09T23:40:46.992Z,102202.56
2022-09-09T23:43:14.604Z,102204.44
2022-09-09T23:45:42.235Z,102202.91
2022-09-09T23:48:09.832Z,102196.94
2022-09-09T23:50:37.491Z,102196.94
2022-09-09T23:53:06.955Z,102189.19
2022-09-09T23:55:35.139Z,102184.03
2022-09-09T23:58:03.015Z,102183.97
